Time;durP1;ratioP1;P1;durP2;ratioP2;P2;SDS_P1;SDS_P2;PMS_P1;PMS_P2;Temp;Humidity;BMP_temperature;BMP_pressure;BME280_temperature;BME280_humidity;BME280_pressure;Samples;Min_cycle;Max_cycle;Signal;HPM_P1;HPM_P2
2023/04/09 00:02:19;;;;;;;;;8.00;5.00;;;;;10.92;55.35;99496.28;5056934;28;46074;-76
2023/04/09 00:04:45;;;;;;;;;8.00;6.00;;;;;10.84;55.71;99498.34;5055846;28;45412;-76
2023/04/09 00:07:10;;;;;;;;;7.25;5.25;;;;;10.75;55.28;99496.88;5055566;28;45435;-76
2023/04/09 00:09:36;;;;;;;;;5.50;5.50;;;;;10.68;54.63;99492.75;5055307;28;45403;-77
2023/04/09 00:12:02;;;;;;;;;8.25;8.25;;;;;10.64;55.09;99499.03;5054736;28;45403;-76
2023/04/09 00:14:28;;;;;;;;;10.00;6.00;;;;;10.60;54.67;99497.41;5055101;28;45445;-76
2023/04/09 00:16:56;;;;;;;;;8.00;6.50;;;;;10.58;54.49;99498.38;5055582;28;45474;-76
2023/04/09 00:19:21;;;;;;;;;5.00;5.00;;;;;10.56;54.63;99495.78;5055293;28;45298;-76
2023/04/09 00:21:47;;;;;;;;;11.00;7.25;;;;;10.51;56.05;99496.88;5055263;28;45624;-77
2023/04/09 00:24:13;;;;;;;;;9.25;7.50;;;;;10.49;56.19;99495.16;5065250;28;45338;-76
2023/04/09 00:26:38;;;;;;;;;7.00;5.75;;;;;10.45;56.14;99496.16;5054953;28;45384;-76
2023/04/09 00:29:04;;;;;;;;;9.50;6.75;;;;;10.43;55.58;99497.13;5055233;28;45309;-76
2023/04/09 00:31:29;;;;;;;;;5.25;5.25;;;;;10.38;55.87;99497.31;5055052;28;45338;-76
2023/04/09 00:33:55;;;;;;;;;8.25;5.00;;;;;10.31;56.14;99501.03;5055218;28;45473;-77
2023/04/09 00:36:20;;;;;;;;;4.75;4.75;;;;;10.23;55.58;99496.91;5070745;28;45433;-76
2023/04/09 00:38:47;;;;;;;;;4.25;4.25;;;;;10.16;55.98;99501.50;5055262;28;45448;-77
2023/04/09 00:41:12;;;;;;;;;4.75;3.25;;;;;10.11;55.89;99498.16;5054216;28;46172;-76
2023/04/09 00:43:38;;;;;;;;;3.00;3.00;;;;;10.07;55.15;99501.78;5054966;28;45391;-76
2023/04/09 00:46:04;;;;;;;;;5.25;4.75;;;;;10.04;55.44;99500.13;5054960;28;45451;-77
2023/04/09 00:48:30;;;;;;;;;8.25;6.50;;;;;9.99;56.19;99503.81;5054384;28;45384;-76
2023/04/09 00:50:55;;;;;;;;;6.50;5.00;;;;;9.98;56.21;99499.47;5054740;28;45487;-76
2023/04/09 00:53:20;;;;;;;;;4.00;4.00;;;;;9.94;56.33;99495.19;5070518;28;45561;-77
2023/04/09 00:55:46;;;;;;;;;6.00;5.50;;;;;9.93;56.35;99507.50;5055150;28;45380;-77
2023/04/09 00:58:12;;;;;;;;;5.00;5.00;;;;;9.87;57.09;99510.34;5054704;28;45310;-76
2023/04/09 01:00:38;;;;;;;;;4.75;4.75;;;;;9.81;57.03;99515.78;5040683;28;46678;-77
2023/04/09 01:03:05;;;;;;;;;4.25;4.25;;;;;9.76;57.33;99512.41;5054923;28;45300;-76
2023/04/09 01:05:41;;;;;;;;;6.00;6.00;;;;;9.71;57.99;99509.94;5054988;28;45574;-77
2023/04/09 01:08:46;;;;;;;;;5.00;5.00;;;;;9.67;57.04;99517.97;5070165;28;45531;-77
2023/04/09 01:11:34;;;;;;;;;5.75;5.00;;;;;9.62;57.90;99523.38;5054456;28;45465;-76
2023/04/09 01:14:18;;;;;;;;;4.00;4.00;;;;;9.60;57.75;99526.94;5054577;28;45451;-76
2023/04/09 01:16:51;;;;;;;;;5.33;4.67;;;;;9.58;57.79;99527.00;5070301;28;45502;-76
2023/04/09 01:19:39;;;;;;;;;5.00;4.00;;;;;9.55;58.02;99521.81;5054677;28;45436;-76
2023/04/09 01:22:19;;;;;;;;;5.25;5.00;;;;;9.53;57.71;99526.28;5071039;28;48092;-77
2023/04/09 01:25:12;;;;;;;;;4.00;4.00;;;;;9.53;56.98;99520.16;5060841;28;45392;-76
2023/04/09 01:28:17;;;;;;;;;1.75;1.75;;;;;9.55;57.33;99520.97;5053936;28;45405;-77
2023/04/09 01:30:48;;;;;;;;;4.00;3.25;;;;;9.56;57.55;99528.81;5066829;28;45730;-76
2023/04/09 01:33:15;;;;;;;;;7.25;6.50;;;;;9.56;58.67;99527.94;5050545;28;45458;-76
2023/04/09 01:35:43;;;;;;;;;4.00;4.00;;;;;9.52;58.57;99529.81;5054502;28;45405;-76
2023/04/09 01:38:11;;;;;;;;;6.75;5.25;;;;;9.53;59.54;99535.94;5054295;28;45451;-77
2023/04/09 01:40:36;;;;;;;;;8.00;6.00;;;;;9.50;59.53;99530.78;5043562;28;45480;-76
2023/04/09 01:43:03;;;;;;;;;4.33;4.00;;;;;9.47;59.83;99531.72;5033767;28;45495;-76
2023/04/09 01:45:28;;;;;;;;;4.25;4.25;;;;;9.44;59.50;99537.94;5049217;28;45433;-77
2023/04/09 01:47:55;;;;;;;;;5.00;5.00;;;;;9.45;59.72;99536.16;5034382;28;45500;-77
2023/04/09 01:50:21;;;;;;;;;5.50;5.50;;;;;9.41;59.74;99530.13;5034356;28;45504;-77
2023/04/09 01:52:47;;;;;;;;;5.50;4.00;;;;;9.39;59.33;99539.81;5033857;28;46416;-76
2023/04/09 01:55:13;;;;;;;;;5.00;3.25;;;;;9.38;59.02;99537.25;5034101;28;45381;-76
2023/04/09 01:57:38;;;;;;;;;3.00;3.00;;;;;9.34;59.70;99541.75;5032664;28;45421;-76
2023/04/09 02:00:05;;;;;;;;;6.00;6.00;;;;;9.27;59.80;99542.81;5044783;28;45504;-76
2023/04/09 02:02:39;;;;;;;;;5.00;5.00;;;;;9.23;60.14;99542.94;5057452;28;46417;-77
2023/04/09 02:05:08;;;;;;;;;5.00;5.00;;;;;9.21;59.84;99552.66;5056093;28;45321;-76
2023/04/09 02:07:46;;;;;;;;;7.50;5.00;;;;;9.20;60.34;99548.31;5072702;28;45463;-76
2023/04/09 02:10:13;;;;;;;;;5.50;4.50;;;;;9.17;59.84;99548.38;5072862;28;45355;-76
2023/04/09 02:12:44;;;;;;;;;4.25;4.25;;;;;9.14;60.76;99544.06;5057169;28;46349;-76
2023/04/09 02:15:11;;;;;;;;;7.50;4.00;;;;;9.14;60.48;99543.19;5072403;28;45559;-77
2023/04/09 02:17:36;;;;;;;;;4.00;4.00;;;;;9.13;60.15;99546.72;5057635;28;45341;-77
2023/04/09 02:20:02;;;;;;;;;5.33;5.00;;;;;9.11;60.92;99546.78;5057359;28;45643;-76
2023/04/09 02:22:27;;;;;;;;;4.00;4.00;;;;;9.09;61.35;99540.69;5072729;28;46848;-77
2023/04/09 02:24:53;;;;;;;;;5.00;5.00;;;;;9.07;61.17;99538.09;5070420;28;45442;-76
2023/04/09 02:27:18;;;;;;;;;4.00;4.00;;;;;9.08;60.91;99545.09;5036677;28;45314;-76
2023/04/09 02:29:44;;;;;;;;;5.00;5.00;;;;;9.09;60.44;99545.94;5036643;28;45574;-77
2023/04/09 02:32:09;;;;;;;;;8.00;7.50;;;;;9.08;60.51;99549.47;5036772;28;45991;-77
2023/04/09 02:34:34;;;;;;;;;5.67;5.00;;;;;9.08;60.51;99552.97;5050970;28;45340;-76
2023/04/09 02:37:00;;;;;;;;;6.00;5.33;;;;;9.10;60.40;99550.31;5057312;28;45420;-77
2023/04/09 02:39:26;;;;;;;;;9.50;7.75;;;;;9.10;60.24;99548.53;5056896;28;45314;-76
2023/04/09 02:41:51;;;;;;;;;6.00;6.00;;;;;9.10;60.46;99553.78;5056656;28;45442;-76
2023/04/09 02:44:17;;;;;;;;;6.67;5.00;;;;;9.09;60.22;99546.81;5057027;28;45436;-76
2023/04/09 02:46:44;;;;;;;;;6.00;6.00;;;;;9.09;60.53;99544.19;5057305;28;45377;-76
2023/04/09 02:49:09;;;;;;;;;6.00;6.00;;;;;9.10;60.32;99553.78;5054946;28;45578;-77
2023/04/09 02:51:35;;;;;;;;;6.00;6.00;;;;;9.09;60.33;99554.69;5036881;28;46374;-76
2023/04/09 02:54:00;;;;;;;;;6.00;4.00;;;;;9.09;60.07;99551.19;5035271;28;45811;-77
2023/04/09 02:56:26;;;;;;;;;5.50;5.50;;;;;9.06;60.07;99552.16;5036637;28;45430;-76
2023/04/09 02:58:52;;;;;;;;;7.75;6.00;;;;;9.06;60.13;99548.66;5036395;28;45480;-77
2023/04/09 03:01:19;;;;;;;;;6.25;6.00;;;;;9.06;60.04;99548.66;5044500;28;46144;-77
2023/04/09 03:03:44;;;;;;;;;9.67;7.67;;;;;9.05;60.41;99550.41;5056355;28;45379;-77
2023/04/09 03:06:10;;;;;;;;;5.75;5.75;;;;;9.03;60.39;99549.63;5056702;28;45486;-77
2023/04/09 03:08:35;;;;;;;;;5.75;5.00;;;;;9.04;60.35;99556.63;5056645;28;45590;-77
2023/04/09 03:11:01;;;;;;;;;5.00;5.00;;;;;9.02;60.61;99554.91;5055913;28;46042;-76
2023/04/09 03:13:27;;;;;;;;;5.25;5.00;;;;;9.01;60.43;99556.69;5056470;28;45413;-77
2023/04/09 03:15:52;;;;;;;;;10.00;10.00;;;;;9.00;60.96;99554.09;5056640;28;45405;-76
2023/04/09 03:18:18;;;;;;;;;11.00;10.00;;;;;8.95;60.70;99550.72;5055812;28;45416;-76
2023/04/09 03:20:43;;;;;;;;;9.67;9.00;;;;;8.93;61.07;99548.13;5056537;28;45608;-76
2023/04/09 03:23:09;;;;;;;;;9.00;9.00;;;;;8.90;60.93;99549.97;5066650;28;45383;-77
2023/04/09 03:25:34;;;;;;;;;8.33;6.67;;;;;8.90;61.22;99552.59;5056796;28;45489;-76
2023/04/09 03:28:00;;;;;;;;;10.33;8.33;;;;;8.88;61.21;99554.44;5055789;28;45522;-76
2023/04/09 03:30:25;;;;;;;;;6.00;6.00;;;;;8.84;60.92;99553.63;5056283;28;46524;-76
2023/04/09 03:32:51;;;;;;;;;6.00;4.75;;;;;8.78;61.18;99553.78;5056219;28;45354;-76
2023/04/09 03:35:16;;;;;;;;;8.00;5.67;;;;;8.75;61.05;99551.22;5056295;28;45819;-76
2023/04/09 03:37:42;;;;;;;;;8.00;6.25;;;;;8.69;61.63;99552.28;5056099;28;45388;-76
2023/04/09 03:40:07;;;;;;;;;8.00;8.00;;;;;8.64;61.48;99551.53;5054669;28;47920;-76
2023/04/09 03:42:33;;;;;;;;;8.00;8.00;;;;;8.61;61.73;99556.84;5054372;28;45511;-77
2023/04/09 03:44:59;;;;;;;;;6.00;5.67;;;;;8.59;61.72;99563.03;5056363;28;45393;-77
2023/04/09 03:47:24;;;;;;;;;9.67;9.67;;;;;8.58;61.70;99553.44;5042830;28;45305;-77
2023/04/09 03:49:50;;;;;;;;;9.67;9.00;;;;;8.56;62.02;99563.97;5056154;28;46431;-77
2023/04/09 03:52:15;;;;;;;;;8.00;8.00;;;;;8.57;61.92;99568.34;5055970;28;45781;-76
2023/04/09 03:54:42;;;;;;;;;9.67;8.00;;;;;8.56;61.82;99566.59;5056281;28;45811;-76
2023/04/09 03:57:07;;;;;;;;;9.33;8.00;;;;;8.55;61.84;99567.50;5055439;28;45665;-76
2023/04/09 03:59:33;;;;;;;;;10.67;9.33;;;;;8.53;61.94;99571.09;5049214;28;46533;-76
2023/04/09 04:01:58;;;;;;;;;8.00;8.00;;;;;8.51;61.83;99573.75;5049423;28;45503;-76
2023/04/09 04:04:24;;;;;;;;;10.67;9.33;;;;;8.52;61.75;99577.25;5055902;28;45419;-76
2023/04/09 04:06:49;;;;;;;;;12.00;10.00;;;;;8.52;62.06;99575.50;5055541;28;45462;-77
2023/04/09 04:09:15;;;;;;;;;10.33;9.00;;;;;8.52;61.80;99580.75;5055438;28;45507;-77
2023/04/09 04:11:40;;;;;;;;;11.00;10.33;;;;;8.51;61.90;99581.63;5055350;28;45392;-76
2023/04/09 04:14:05;;;;;;;;;11.00;9.00;;;;;8.52;61.62;99586.00;5054420;28;45535;-76
2023/04/09 04:16:31;;;;;;;;;12.00;10.50;;;;;8.50;61.79;99587.78;5055413;28;45456;-75
2023/04/09 04:18:56;;;;;;;;;9.00;7.33;;;;;8.47;62.09;99598.38;5071242;28;47140;-76
2023/04/09 04:21:22;;;;;;;;;10.00;8.33;;;;;8.43;62.64;99601.97;5055163;28;45346;-76
2023/04/09 04:23:47;;;;;;;;;10.00;8.00;;;;;8.40;62.48;99595.00;5064482;28;45393;-76
2023/04/09 04:26:12;;;;;;;;;9.00;9.00;;;;;8.37;62.63;99597.75;5054915;28;45484;-77
2023/04/09 04:28:39;;;;;;;;;10.00;9.00;;;;;8.37;62.63;99597.75;5054896;28;46137;-77
2023/04/09 04:31:09;;;;;;;;;13.67;10.00;;;;;8.36;62.34;99596.00;5054921;28;45448;-76
2023/04/09 04:33:35;;;;;;;;;14.67;9.67;;;;;8.35;62.57;99598.69;5070449;28;45402;-76
2023/04/09 04:36:10;;;;;;;;;10.00;9.00;;;;;8.32;62.38;99596.97;5070334;28;45621;-76
2023/04/09 04:38:36;;;;;;;;;11.00;10.00;;;;;8.32;62.58;99604.84;5070170;28;46754;-77
2023/04/09 04:41:02;;;;;;;;;9.00;8.00;;;;;8.30;62.86;99603.13;5054592;28;45493;-77
2023/04/09 04:43:27;;;;;;;;;10.00;9.00;;;;;8.30;62.78;99611.00;5033400;28;45417;-76
2023/04/09 04:45:54;;;;;;;;;9.00;9.00;;;;;8.29;62.88;99610.16;5049632;28;45277;-77
2023/04/09 04:48:19;;;;;;;;;6.00;5.00;;;;;8.24;62.72;99609.38;5070630;28;48138;-77
2023/04/09 04:50:45;;;;;;;;;10.00;9.33;;;;;8.22;62.99;99619.03;5070634;28;45306;-76
2023/04/09 04:53:10;;;;;;;;;8.00;7.33;;;;;8.18;62.60;99614.78;5055082;28;45532;-76
2023/04/09 04:55:38;;;;;;;;;11.00;9.33;;;;;8.17;63.02;99620.06;5068037;28;45352;-76
2023/04/09 04:58:04;;;;;;;;;10.33;9.00;;;;;8.15;62.89;99627.97;5054813;28;46273;-77
2023/04/09 05:00:29;;;;;;;;;9.33;8.00;;;;;8.12;62.60;99625.41;5053797;28;45491;-77
2023/04/09 05:02:54;;;;;;;;;8.33;6.67;;;;;8.10;62.65;99631.59;5041877;28;45453;-77
2023/04/09 05:05:20;;;;;;;;;8.67;7.00;;;;;8.06;62.82;99631.66;5053146;28;45425;-76
2023/04/09 05:07:46;;;;;;;;;2.67;2.00;;;;;8.04;62.93;99630.81;5054726;28;46020;-76
2023/04/09 05:10:11;;;;;;;;;6.33;5.00;;;;;8.03;62.96;99630.88;5054598;28;45371;-77
2023/04/09 05:12:36;;;;;;;;;7.33;5.67;;;;;8.03;62.99;99630.88;5054695;28;45411;-77
2023/04/09 05:15:02;;;;;;;;;7.33;5.00;;;;;8.00;63.01;99639.69;5054478;28;45433;-76
2023/04/09 05:17:27;;;;;;;;;5.67;5.00;;;;;7.98;62.78;99641.47;5054348;28;45387;-77
2023/04/09 05:19:53;;;;;;;;;7.00;6.00;;;;;7.98;62.94;99643.22;5054484;28;45421;-76
2023/04/09 05:22:19;;;;;;;;;9.00;7.33;;;;;7.97;62.87;99645.00;5058568;28;45472;-76
2023/04/09 05:24:45;;;;;;;;;9.33;8.00;;;;;7.96;62.76;99643.25;5060364;27;45358;-76
2023/04/09 05:27:10;;;;;;;;;10.00;10.00;;;;;7.95;63.11;99646.78;5054010;28;46222;-77
2023/04/09 05:29:35;;;;;;;;;10.00;8.00;;;;;7.96;62.86;99659.03;5054540;28;45357;-77
2023/04/09 05:32:01;;;;;;;;;11.33;8.67;;;;;7.96;63.00;99655.53;5054620;28;45931;-76
2023/04/09 05:34:26;;;;;;;;;9.00;9.00;;;;;7.96;62.97;99652.91;5069427;28;45830;-76
2023/04/09 05:36:53;;;;;;;;;9.00;8.00;;;;;7.97;63.07;99657.25;5054286;28;45639;-76
2023/04/09 05:39:18;;;;;;;;;4.67;4.00;;;;;7.99;63.03;99660.72;5054209;28;45338;-76
2023/04/09 05:41:43;;;;;;;;;10.00;8.00;;;;;7.99;63.29;99658.09;5069383;28;45416;-76
2023/04/09 05:44:10;;;;;;;;;10.00;8.00;;;;;8.03;63.45;99657.13;5054014;28;45407;-77
2023/04/09 05:46:36;;;;;;;;;9.33;8.33;;;;;8.02;63.26;99656.28;5053867;28;45476;-76
2023/04/09 05:49:02;;;;;;;;;9.00;9.00;;;;;8.05;63.09;99661.44;5053975;28;45321;-76
2023/04/09 05:51:27;;;;;;;;;11.00;9.00;;;;;8.07;63.23;99661.41;5054122;28;45389;-77
2023/04/09 05:53:53;;;;;;;;;8.00;8.00;;;;;8.11;63.28;99656.97;5053903;28;45581;-76
2023/04/09 05:56:21;;;;;;;;;10.00;8.00;;;;;8.12;63.11;99658.69;5053468;28;45785;-77
2023/04/09 05:58:47;;;;;;;;;8.33;7.33;;;;;8.16;63.15;99658.59;5052913;28;45378;-76
2023/04/09 06:01:12;;;;;;;;;11.33;10.00;;;;;8.17;63.09;99668.22;5041328;28;45575;-76
2023/04/09 06:03:38;;;;;;;;;13.33;9.00;;;;;8.20;63.11;99668.16;5049621;28;45496;-77
2023/04/09 06:06:04;;;;;;;;;14.00;11.33;;;;;8.23;63.15;99664.56;5053811;28;46034;-77
2023/04/09 06:08:29;;;;;;;;;14.00;12.00;;;;;8.27;63.12;99669.72;5069713;28;45831;-77
2023/04/09 06:10:55;;;;;;;;;12.33;12.33;;;;;8.31;63.07;99676.66;5053480;28;45487;-76
2023/04/09 06:13:20;;;;;;;;;14.33;10.33;;;;;8.34;62.78;99681.88;5053994;28;45606;-77
2023/04/09 06:15:46;;;;;;;;;11.67;10.67;;;;;8.38;62.76;99670.38;5054028;28;46243;-76
2023/04/09 06:18:12;;;;;;;;;14.00;12.67;;;;;8.41;62.79;99674.69;5053695;28;45377;-76
2023/04/09 06:20:37;;;;;;;;;15.33;12.67;;;;;8.47;62.76;99674.56;5052577;28;45373;-77
2023/04/09 06:23:04;;;;;;;;;13.00;13.00;;;;;8.59;62.63;99674.28;5064115;28;45534;-60
2023/04/09 06:25:29;;;;;;;;;14.33;14.33;;;;;8.67;62.27;99680.25;5038530;28;47644;-59
2023/04/09 06:27:56;;;;;;;;;16.00;13.33;;;;;8.73;62.28;99673.94;5052532;28;45368;-59
2023/04/09 06:30:21;;;;;;;;;18.67;14.67;;;;;8.80;62.12;99680.81;5053345;28;45409;-59
2023/04/09 06:32:47;;;;;;;;;15.33;15.00;;;;;8.84;61.97;99679.84;5053517;28;45432;-59
2023/04/09 06:35:13;;;;;;;;;15.67;12.00;;;;;8.87;61.83;99679.78;5053648;28;46125;-59
2023/04/09 06:37:39;;;;;;;;;12.00;11.67;;;;;8.93;61.70;99684.84;5044048;28;45401;-59
2023/04/09 06:40:05;;;;;;;;;14.00;12.00;;;;;8.98;61.76;99677.72;5052816;28;45440;-59
2023/04/09 06:42:31;;;;;;;;;13.67;13.33;;;;;9.05;61.85;99681.91;5052489;28;45556;-59
2023/04/09 06:44:56;;;;;;;;;17.33;15.00;;;;;9.15;61.46;99676.44;5052720;28;45349;-59
2023/04/09 06:47:21;;;;;;;;;14.33;12.67;;;;;9.22;61.26;99680.63;5049076;28;45500;-59
2023/04/09 06:49:47;;;;;;;;;12.33;12.00;;;;;9.29;61.16;99675.19;5055164;28;45802;-59
2023/04/09 06:52:12;;;;;;;;;11.00;10.67;;;;;9.35;60.99;99675.03;5055160;28;45531;-59
2023/04/09 06:54:37;;;;;;;;;10.00;10.00;;;;;9.42;60.93;99673.09;5056669;28;46316;-59
2023/04/09 06:57:03;;;;;;;;;10.00;10.00;;;;;9.48;60.80;99679.97;5056483;28;45391;-60
2023/04/09 06:59:29;;;;;;;;;11.33;10.67;;;;;9.53;60.57;99670.19;5055922;28;45365;-59
2023/04/09 07:01:55;;;;;;;;;11.00;9.33;;;;;9.57;60.14;99672.66;5056258;28;45586;-60
2023/04/09 07:04:20;;;;;;;;;13.00;11.00;;;;;9.62;60.09;99675.19;5052311;28;45538;-59
2023/04/09 07:06:46;;;;;;;;;17.67;12.67;;;;;9.67;60.13;99670.66;5045398;28;45342;-60
2023/04/09 07:09:11;;;;;;;;;10.33;9.33;;;;;9.71;60.02;99667.91;5047922;28;45250;-60
2023/04/09 07:11:36;;;;;;;;;11.00;11.00;;;;;9.78;59.96;99671.22;5055999;28;45735;-60
2023/04/09 07:14:02;;;;;;;;;5.33;5.00;;;;;9.86;59.80;99668.38;5056302;28;45593;-59
2023/04/09 07:16:27;;;;;;;;;12.50;12.00;;;;;9.91;59.70;99672.59;5055381;28;45427;-59
2023/04/09 07:18:52;;;;;;;;;11.00;9.67;;;;;9.98;59.89;99673.28;5055773;28;45485;-59
2023/04/09 07:21:18;;;;;;;;;11.00;9.33;;;;;10.05;59.80;99669.59;5055821;28;45377;-59
2023/04/09 07:23:43;;;;;;;;;11.67;11.00;;;;;10.12;59.55;99674.63;5065358;28;46171;-59
2023/04/09 07:26:09;;;;;;;;;12.50;11.50;;;;;10.22;59.53;99677.84;5055742;28;45416;-60
2023/04/09 07:28:34;;;;;;;;;12.00;11.00;;;;;10.30;59.44;99675.88;5056294;28;45531;-59
2023/04/09 07:31:01;;;;;;;;;15.33;11.00;;;;;10.36;59.00;99680.09;5056171;28;45435;-59
2023/04/09 07:33:28;;;;;;;;;10.00;9.00;;;;;10.41;59.01;99672.91;5071240;28;45404;-59
2023/04/09 07:35:53;;;;;;;;;12.00;12.00;;;;;10.49;58.66;99677.03;5070888;28;45425;-60
2023/04/09 07:38:19;;;;;;;;;15.25;14.00;;;;;10.59;58.37;99679.38;5054269;28;45449;-60
2023/04/09 07:40:44;;;;;;;;;12.25;12.00;;;;;10.67;58.18;99667.69;5054443;28;45865;-59
2023/04/09 07:43:10;;;;;;;;;6.25;6.25;;;;;10.76;58.03;99664.75;5071574;28;47035;-60
2023/04/09 07:45:35;;;;;;;;;7.00;5.75;;;;;10.85;57.93;99666.25;5056324;28;45370;-60
2023/04/09 07:48:01;;;;;;;;;14.75;11.00;;;;;10.94;57.65;99670.34;5055947;28;45412;-59
2023/04/09 07:50:26;;;;;;;;;12.25;10.75;;;;;11.00;57.57;99664.88;5055791;28;45474;-59
2023/04/09 07:52:51;;;;;;;;;11.00;9.25;;;;;11.05;57.66;99666.47;5068721;28;47436;-60
2023/04/09 07:55:17;;;;;;;;;14.25;13.00;;;;;11.11;57.59;99673.28;5053974;28;45820;-60
2023/04/09 07:57:44;;;;;;;;;12.00;10.75;;;;;11.18;57.35;99669.53;5051836;28;45470;-59
2023/04/09 08:00:10;;;;;;;;;17.00;13.00;;;;;11.26;57.21;99674.53;5047375;28;45417;-59
2023/04/09 08:02:35;;;;;;;;;10.75;10.75;;;;;11.34;57.04;99664.59;5054820;28;45446;-59
2023/04/09 08:05:01;;;;;;;;;11.00;11.00;;;;;11.42;57.05;99673.97;5070311;28;45358;-60
2023/04/09 08:07:26;;;;;;;;;10.25;10.25;;;;;11.51;57.00;99678.94;5054930;28;45342;-60
2023/04/09 08:09:52;;;;;;;;;14.50;12.50;;;;;11.56;56.88;99678.78;5054720;28;45372;-59
2023/04/09 08:12:17;;;;;;;;;15.00;12.00;;;;;11.62;56.64;99672.41;5053827;28;46218;-60
2023/04/09 08:14:42;;;;;;;;;12.50;11.00;;;;;11.67;56.49;99676.63;5054763;28;45542;-60
2023/04/09 08:17:08;;;;;;;;;18.00;15.33;;;;;11.72;56.55;99677.31;5054650;28;45513;-60
2023/04/09 08:19:33;;;;;;;;;15.33;15.00;;;;;11.79;56.54;99678.84;5055015;28;45396;-60
2023/04/09 08:22:00;;;;;;;;;15.00;15.00;;;;;11.88;56.46;99677.66;5054240;28;46761;-59
2023/04/09 08:24:25;;;;;;;;;17.75;15.50;;;;;11.95;56.35;99675.66;5062844;28;45450;-60
2023/04/09 08:26:51;;;;;;;;;12.00;9.00;;;;;12.01;56.04;99675.44;5054668;28;45483;-60
2023/04/09 08:29:16;;;;;;;;;17.25;16.25;;;;;12.07;56.10;99681.31;5054430;28;45512;-59
2023/04/09 08:31:41;;;;;;;;;10.00;10.00;;;;;12.14;55.98;99674.91;5054288;28;46135;-60
2023/04/09 08:34:07;;;;;;;;;12.25;12.00;;;;;12.19;55.90;99680.03;5069931;28;45433;-59
2023/04/09 08:36:34;;;;;;;;;12.75;11.50;;;;;12.24;55.77;99672.75;5054291;28;45455;-60
2023/04/09 08:39:00;;;;;;;;;14.00;13.25;;;;;12.30;55.68;99674.31;5053844;28;45618;-59
2023/04/09 08:41:28;;;;;;;;;11.00;9.75;;;;;12.35;55.58;99675.03;5053889;28;45458;-59
2023/04/09 08:43:54;;;;;;;;;17.33;14.67;;;;;12.41;55.61;99682.69;5053751;28;45371;-60
2023/04/09 08:46:20;;;;;;;;;13.25;12.50;;;;;12.47;55.11;99685.13;5054363;28;45474;-59
2023/04/09 08:48:47;;;;;;;;;14.25;14.00;;;;;12.52;55.14;99685.81;5054820;28;45498;-60
2023/04/09 08:51:16;;;;;;;;;19.25;16.25;;;;;12.59;54.99;99687.28;5068358;28;47721;-59
2023/04/09 08:53:46;;;;;;;;;18.33;15.00;;;;;12.66;55.05;99669.38;5053654;28;45459;-60
2023/04/09 08:56:15;;;;;;;;;13.75;12.25;;;;;12.68;54.86;99667.56;5068665;28;45386;-60
2023/04/09 08:58:43;;;;;;;;;14.50;14.00;;;;;12.68;54.79;99668.41;5053306;28;45381;-60
2023/04/09 09:01:30;;;;;;;;;12.75;12.50;;;;;12.74;54.57;99662.84;5053806;28;46205;-60
2023/04/09 09:03:57;;;;;;;;;15.50;11.75;;;;;12.80;54.46;99657.31;5056346;28;45376;-60
2023/04/09 09:06:28;;;;;;;;;12.75;10.75;;;;;12.88;54.12;99660.53;5052972;28;45383;-60
2023/04/09 09:09:14;;;;;;;;;10.75;8.25;;;;;12.97;53.75;99661.94;5053414;28;45404;-59
2023/04/09 09:11:47;;;;;;;;;14.00;14.00;;;;;13.03;53.92;99659.03;5053308;28;46152;-59
2023/04/09 09:14:14;;;;;;;;;10.25;10.00;;;;;13.08;53.55;99648.25;5069050;28;45825;-59
2023/04/09 09:16:42;;;;;;;;;11.50;11.50;;;;;13.14;53.45;99653.28;5053490;28;45433;-60
2023/04/09 09:19:22;;;;;;;;;11.25;11.00;;;;;13.23;53.29;99651.16;5054046;28;45546;-60
2023/04/09 09:21:56;;;;;;;;;14.25;12.75;;;;;13.34;53.11;99649.84;5053710;28;46565;-60
2023/04/09 09:24:22;;;;;;;;;11.50;11.25;;;;;13.41;52.38;99645.97;5044205;28;45519;-60
2023/04/09 09:26:47;;;;;;;;;12.50;9.75;;;;;13.47;52.10;99643.06;5068967;28;45417;-60
2023/04/09 09:29:13;;;;;;;;;11.00;9.25;;;;;13.54;52.15;99644.53;5053871;28;45480;-60
2023/04/09 09:31:48;;;;;;;;;11.75;11.75;;;;;13.60;52.27;99636.31;5068916;28;46399;-60
2023/04/09 09:34:14;;;;;;;;;11.50;11.00;;;;;13.68;51.83;99641.28;5053925;28;45380;-60
2023/04/09 09:36:40;;;;;;;;;13.50;10.75;;;;;13.76;51.84;99633.84;5053415;28;45500;-59
2023/04/09 09:39:09;;;;;;;;;12.00;12.00;;;;;13.82;51.88;99637.09;5053338;28;45429;-59
2023/04/09 09:41:35;;;;;;;;;13.75;9.25;;;;;13.86;51.73;99632.50;5052595;28;46638;-59
2023/04/09 09:44:02;;;;;;;;;10.00;10.00;;;;;13.89;51.17;99627.06;5053320;28;45358;-59
2023/04/09 09:46:32;;;;;;;;;7.00;7.00;;;;;13.92;51.50;99627.78;5053305;28;45432;-59
2023/04/09 09:48:58;;;;;;;;;12.00;11.25;;;;;13.96;50.39;99629.34;5052919;28;45451;-59
2023/04/09 09:51:26;;;;;;;;;10.00;10.00;;;;;13.94;50.56;99625.06;5053138;28;45433;-58
2023/04/09 09:53:55;;;;;;;;;11.75;9.50;;;;;13.94;50.41;99630.34;5053265;28;45460;-59
2023/04/09 09:56:24;;;;;;;;;9.50;9.50;;;;;13.97;49.95;99622.25;5068452;28;45345;-59
2023/04/09 09:59:02;;;;;;;;;9.25;9.00;;;;;14.02;50.13;99620.28;5052945;28;45566;-59
2023/04/09 10:01:28;;;;;;;;;6.50;6.50;;;;;14.08;50.32;99613.81;5063412;28;45503;-59
2023/04/09 10:03:55;;;;;;;;;8.00;8.00;;;;;14.18;49.88;99613.31;5053264;28;45318;-59
2023/04/09 10:06:22;;;;;;;;;2.00;2.00;;;;;14.26;49.47;99610.28;5051922;28;45516;-60
2023/04/09 10:08:48;;;;;;;;;8.00;8.00;;;;;14.36;49.05;99598.34;5051755;28;45467;-59
2023/04/09 10:11:13;;;;;;;;;8.75;6.25;;;;;14.46;48.92;99593.47;5051844;28;45575;-60
2023/04/09 10:13:47;;;;;;;;;8.75;8.25;;;;;14.55;48.59;99593.03;5052879;28;45452;-60
2023/04/09 10:16:14;;;;;;;;;10.25;8.50;;;;;14.63;49.13;99589.06;5053151;28;45476;-60
2023/04/09 10:18:41;;;;;;;;;9.75;9.25;;;;;14.68;48.96;99586.19;5052640;28;45613;-60
2023/04/09 10:21:40;;;;;;;;;9.25;7.25;;;;;14.72;48.75;99585.13;5053418;28;45592;-60
2023/04/09 10:24:07;;;;;;;;;10.00;8.00;;;;;14.78;48.67;99581.28;5066433;28;45372;-60
2023/04/09 10:26:34;;;;;;;;;8.25;7.25;;;;;14.85;48.29;99577.38;5071587;28;45507;-60
2023/04/09 10:29:13;;;;;;;;;9.00;8.25;;;;;14.92;47.86;99570.81;5055866;28;45333;-60
2023/04/09 10:32:04;;;;;;;;;8.00;6.50;;;;;14.97;47.88;99572.31;5056293;28;46394;-60
2023/04/09 10:34:35;;;;;;;;;7.25;7.25;;;;;15.02;47.51;99570.28;5055519;28;45414;-59
2023/04/09 10:37:01;;;;;;;;;9.00;7.25;;;;;15.09;47.69;99560.19;5056017;28;45365;-59
2023/04/09 10:39:28;;;;;;;;;9.00;6.50;;;;;15.11;47.91;99562.78;5056192;28;45361;-60
2023/04/09 10:41:55;;;;;;;;;7.75;6.00;;;;;15.14;47.30;99562.63;5055633;28;46223;-60
2023/04/09 10:44:22;;;;;;;;;8.50;6.50;;;;;15.21;46.51;99556.06;5056236;28;45477;-59
2023/04/09 10:46:49;;;;;;;;;3.00;3.00;;;;;15.27;45.95;99548.63;5056756;28;45439;-60
2023/04/09 10:49:23;;;;;;;;;5.00;4.00;;;;;15.34;45.97;99551.81;5056246;28;45332;-60
2023/04/09 10:52:00;;;;;;;;;6.50;5.50;;;;;15.43;45.58;99542.50;5055885;28;45479;-60
2023/04/09 10:54:42;;;;;;;;;4.60;4.60;;;;;15.51;46.10;99549.13;5055939;28;45460;-60
2023/04/09 10:57:08;;;;;;;;;6.00;5.00;;;;;15.57;46.19;99534.69;5071447;28;45445;-61
2023/04/09 10:59:35;;;;;;;;;6.25;5.50;;;;;15.59;45.85;99531.00;5056011;28;45546;-60
2023/04/09 11:02:00;;;;;;;;;6.00;6.00;;;;;15.61;45.73;99529.13;5055808;28;45561;-60
2023/04/09 11:04:37;;;;;;;;;6.50;6.25;;;;;15.66;45.84;99524.41;5056220;28;45433;-60
2023/04/09 11:07:05;;;;;;;;;7.25;6.00;;;;;15.70;46.68;99514.47;5056417;28;45606;-60
2023/04/09 11:09:34;;;;;;;;;7.00;7.00;;;;;15.74;45.66;99510.72;5055796;28;45376;-60
2023/04/09 11:12:00;;;;;;;;;5.00;5.00;;;;;15.78;45.70;99509.59;5071461;28;45395;-60
2023/04/09 11:14:26;;;;;;;;;7.40;7.00;;;;;15.82;45.88;99503.16;5056240;28;45279;-60
2023/04/09 11:16:52;;;;;;;;;8.00;6.25;;;;;15.90;45.43;99506.28;5056114;28;45299;-60
2023/04/09 11:19:19;;;;;;;;;7.25;6.50;;;;;16.00;45.36;99490.66;5055804;28;45408;-60
2023/04/09 11:21:47;;;;;;;;;4.25;4.25;;;;;16.08;45.03;99490.22;5055814;28;45478;-60
2023/04/09 11:24:12;;;;;;;;;5.00;5.00;;;;;16.12;44.22;99494.41;5066270;28;45555;-60
2023/04/09 11:26:38;;;;;;;;;3.00;3.00;;;;;16.15;43.92;99483.59;5055838;28;45464;-60
2023/04/09 11:29:06;;;;;;;;;5.00;5.00;;;;;16.15;44.38;99479.13;5055783;28;45384;-60
2023/04/09 11:31:31;;;;;;;;;6.00;6.00;;;;;16.22;44.65;99469.88;5070587;28;48073;-60
2023/04/09 11:33:56;;;;;;;;;5.75;5.75;;;;;16.30;44.49;99472.06;5051911;28;45334;-60